sensor_id;sensor_type;location;lat;lon;timestamp;pressure;altitude;pressure_sealevel;temperature
68911;BMP180;55953;51.650;-0.522;2023-05-09T00:00:47;100466.40;;;14.10
68911;BMP180;55953;51.650;-0.522;2023-05-09T00:03:15;100461.00;;;14.10
68911;BMP180;55953;51.650;-0.522;2023-05-09T00:05:44;100459.40;;;14.10
68911;BMP180;55953;51.650;-0.522;2023-05-09T00:08:12;100460.60;;;14.04
68911;BMP180;55953;51.650;-0.522;2023-05-09T00:10:40;100455.20;;;14.08
68911;BMP180;55953;51.650;-0.522;2023-05-09T00:13:08;100451.00;;;14.10
68911;BMP180;55953;51.650;-0.522;2023-05-09T00:15:36;100441.00;;;14.10
68911;BMP180;55953;51.650;-0.522;2023-05-09T00:18:04;100436.40;;;14.10
68911;BMP180;55953;51.650;-0.522;2023-05-09T00:20:32;100441.60;;;14.10
68911;BMP180;55953;51.650;-0.522;2023-05-09T00:23:00;100438.80;;;14.10
68911;BMP180;55953;51.650;-0.522;2023-05-09T00:25:28;100438.00;;;14.10
68911;BMP180;55953;51.650;-0.522;2023-05-09T00:27:56;100436.20;;;14.10
68911;BMP180;55953;51.650;-0.522;2023-05-09T00:30:24;100432.20;;;14.20
68911;BMP180;55953;51.650;-0.522;2023-05-09T00:32:52;100430.40;;;14.20
68911;BMP180;55953;51.650;-0.522;2023-05-09T00:35:20;100426.60;;;14.20
68911;BMP180;55953;51.650;-0.522;2023-05-09T00:37:48;100422.00;;;14.24
68911;BMP180;55953;51.650;-0.522;2023-05-09T00:40:16;100422.00;;;14.30
68911;BMP180;55953;51.650;-0.522;2023-05-09T00:42:44;100419.20;;;14.20
68911;BMP180;55953;51.650;-0.522;2023-05-09T00:45:12;100413.40;;;14.20
68911;BMP180;55953;51.650;-0.522;2023-05-09T00:47:40;100412.20;;;14.20
68911;BMP180;55953;51.650;-0.522;2023-05-09T00:50:08;100407.40;;;14.20
68911;BMP180;55953;51.650;-0.522;2023-05-09T00:52:37;100406.40;;;14.20
68911;BMP180;55953;51.650;-0.522;2023-05-09T00:55:07;100407.40;;;14.30
68911;BMP180;55953;51.650;-0.522;2023-05-09T00:57:35;100396.20;;;14.30
68911;BMP180;55953;51.650;-0.522;2023-05-09T01:00:04;100390.20;;;14.20
68911;BMP180;55953;51.650;-0.522;2023-05-09T01:02:32;100391.20;;;14.20
68911;BMP180;55953;51.650;-0.522;2023-05-09T01:05:00;100388.60;;;14.20
68911;BMP180;55953;51.650;-0.522;2023-05-09T01:07:42;100381.80;;;14.24
68911;BMP180;55953;51.650;-0.522;2023-05-09T01:10:38;100381.80;;;14.30
68911;BMP180;55953;51.650;-0.522;2023-05-09T01:16:32;100382.80;;;14.24
68911;BMP180;55953;51.650;-0.522;2023-05-09T01:22:13;100381.80;;;14.20
68911;BMP180;55953;51.650;-0.522;2023-05-09T01:25:28;100374.20;;;14.10
68911;BMP180;55953;51.650;-0.522;2023-05-09T01:28:18;100383.20;;;14.10
68911;BMP180;55953;51.650;-0.522;2023-05-09T01:30:54;100382.20;;;14.10
68911;BMP180;55953;51.650;-0.522;2023-05-09T01:33:25;100379.80;;;14.10
68911;BMP180;55953;51.650;-0.522;2023-05-09T01:36:03;100378.20;;;14.10
68911;BMP180;55953;51.650;-0.522;2023-05-09T01:38:31;100385.60;;;14.10
68911;BMP180;55953;51.650;-0.522;2023-05-09T01:41:01;100381.00;;;14.10
68911;BMP180;55953;51.650;-0.522;2023-05-09T01:43:32;100379.40;;;14.10
68911;BMP180;55953;51.650;-0.522;2023-05-09T01:46:04;100376.40;;;14.10
68911;BMP180;55953;51.650;-0.522;2023-05-09T01:48:35;100376.20;;;14.10
68911;BMP180;55953;51.650;-0.522;2023-05-09T01:51:05;100372.00;;;14.00
68911;BMP180;55953;51.650;-0.522;2023-05-09T01:53:34;100368.00;;;14.00
68911;BMP180;55953;51.650;-0.522;2023-05-09T01:56:08;100367.00;;;13.90
68911;BMP180;55953;51.650;-0.522;2023-05-09T01:58:38;100362.60;;;13.90
68911;BMP180;55953;51.650;-0.522;2023-05-09T02:01:06;100356.00;;;13.90
68911;BMP180;55953;51.650;-0.522;2023-05-09T02:03:36;100356.00;;;13.90
68911;BMP180;55953;51.650;-0.522;2023-05-09T02:06:06;100354.20;;;13.80
68911;BMP180;55953;51.650;-0.522;2023-05-09T02:08:35;100356.80;;;13.80
68911;BMP180;55953;51.650;-0.522;2023-05-09T02:11:03;100354.00;;;13.76
68911;BMP180;55953;51.650;-0.522;2023-05-09T02:13:33;100355.20;;;13.76
68911;BMP180;55953;51.650;-0.522;2023-05-09T02:16:01;100352.40;;;13.76
68911;BMP180;55953;51.650;-0.522;2023-05-09T02:18:29;100359.60;;;13.70
68911;BMP180;55953;51.650;-0.522;2023-05-09T02:21:01;100362.00;;;13.70
68911;BMP180;55953;51.650;-0.522;2023-05-09T02:23:30;100361.80;;;13.60
68911;BMP180;55953;51.650;-0.522;2023-05-09T02:25:58;100362.60;;;13.60
68911;BMP180;55953;51.650;-0.522;2023-05-09T02:28:27;100358.80;;;13.60
68911;BMP180;55953;51.650;-0.522;2023-05-09T02:30:58;100358.00;;;13.60
68911;BMP180;55953;51.650;-0.522;2023-05-09T02:33:29;100362.00;;;13.58
68911;BMP180;55953;51.650;-0.522;2023-05-09T02:35:58;100355.40;;;13.58
68911;BMP180;55953;51.650;-0.522;2023-05-09T02:38:26;100359.80;;;13.50
68911;BMP180;55953;51.650;-0.522;2023-05-09T02:40:55;100358.80;;;13.50
68911;BMP180;55953;51.650;-0.522;2023-05-09T02:43:22;100367.40;;;13.52
68911;BMP180;55953;51.650;-0.522;2023-05-09T02:45:50;100364.60;;;13.58
68911;BMP180;55953;51.650;-0.522;2023-05-09T02:48:18;100364.80;;;13.56
68911;BMP180;55953;51.650;-0.522;2023-05-09T02:50:46;100364.60;;;13.60
68911;BMP180;55953;51.650;-0.522;2023-05-09T02:53:14;100359.80;;;13.60
68911;BMP180;55953;51.650;-0.522;2023-05-09T02:55:42;100363.80;;;13.60
68911;BMP180;55953;51.650;-0.522;2023-05-09T02:58:10;100364.00;;;13.50
68911;BMP180;55953;51.650;-0.522;2023-05-09T03:00:42;100367.80;;;13.58
68911;BMP180;55953;51.650;-0.522;2023-05-09T03:03:11;100362.40;;;13.54
68911;BMP180;55953;51.650;-0.522;2023-05-09T03:05:39;100363.60;;;13.60
68911;BMP180;55953;51.650;-0.522;2023-05-09T03:08:07;100360.00;;;13.56
68911;BMP180;55953;51.650;-0.522;2023-05-09T03:10:35;100361.20;;;13.50
68911;BMP180;55953;51.650;-0.522;2023-05-09T03:13:03;100360.20;;;13.50
68911;BMP180;55953;51.650;-0.522;2023-05-09T03:15:32;100360.60;;;13.50
68911;BMP180;55953;51.650;-0.522;2023-05-09T03:18:00;100357.00;;;13.50
68911;BMP180;55953;51.650;-0.522;2023-05-09T03:20:29;100365.00;;;13.50
68911;BMP180;55953;51.650;-0.522;2023-05-09T03:22:57;100368.00;;;13.46
68911;BMP180;55953;51.650;-0.522;2023-05-09T03:25:25;100369.20;;;13.40
68911;BMP180;55953;51.650;-0.522;2023-05-09T03:27:53;100367.60;;;13.40
68911;BMP180;55953;51.650;-0.522;2023-05-09T03:30:23;100366.60;;;13.30
68911;BMP180;55953;51.650;-0.522;2023-05-09T03:32:51;100357.60;;;13.30
68911;BMP180;55953;51.650;-0.522;2023-05-09T03:35:19;100355.00;;;13.30
68911;BMP180;55953;51.650;-0.522;2023-05-09T03:37:47;100354.80;;;13.30
68911;BMP180;55953;51.650;-0.522;2023-05-09T03:40:15;100349.00;;;13.30
68911;BMP180;55953;51.650;-0.522;2023-05-09T03:42:48;100349.20;;;13.30
68911;BMP180;55953;51.650;-0.522;2023-05-09T03:45:16;100339.00;;;13.30
68911;BMP180;55953;51.650;-0.522;2023-05-09T03:47:45;100345.60;;;13.30
68911;BMP180;55953;51.650;-0.522;2023-05-09T03:50:13;100340.60;;;13.30
68911;BMP180;55953;51.650;-0.522;2023-05-09T03:52:41;100344.80;;;13.30
68911;BMP180;55953;51.650;-0.522;2023-05-09T03:55:10;100334.00;;;13.20
68911;BMP180;55953;51.650;-0.522;2023-05-09T03:57:38;100337.40;;;13.20
68911;BMP180;55953;51.650;-0.522;2023-05-09T04:00:07;100336.80;;;13.20
68911;BMP180;55953;51.650;-0.522;2023-05-09T04:02:48;100336.20;;;13.20
68911;BMP180;55953;51.650;-0.522;2023-05-09T04:05:23;100332.20;;;13.20
68911;BMP180;55953;51.650;-0.522;2023-05-09T04:07:51;100321.00;;;13.20
68911;BMP180;55953;51.650;-0.522;2023-05-09T04:10:19;100320.20;;;13.20
68911;BMP180;55953;51.650;-0.522;2023-05-09T04:12:48;100315.00;;;13.20
68911;BMP180;55953;51.650;-0.522;2023-05-09T04:15:16;100310.60;;;13.20
68911;BMP180;55953;51.650;-0.522;2023-05-09T04:17:44;100308.00;;;13.20
68911;BMP180;55953;51.650;-0.522;2023-05-09T04:20:12;100304.00;;;13.20
68911;BMP180;55953;51.650;-0.522;2023-05-09T04:22:41;100304.20;;;13.20
68911;BMP180;55953;51.650;-0.522;2023-05-09T04:25:13;100310.20;;;13.20
68911;BMP180;55953;51.650;-0.522;2023-05-09T04:27:43;100307.20;;;13.20
68911;BMP180;55953;51.650;-0.522;2023-05-09T04:30:11;100310.20;;;13.22
68911;BMP180;55953;51.650;-0.522;2023-05-09T04:32:40;100311.20;;;13.20
68911;BMP180;55953;51.650;-0.522;2023-05-09T04:35:12;100308.80;;;13.30
68911;BMP180;55953;51.650;-0.522;2023-05-09T04:37:43;100308.60;;;13.28
68911;BMP180;55953;51.650;-0.522;2023-05-09T04:40:12;100312.40;;;13.30
68911;BMP180;55953;51.650;-0.522;2023-05-09T04:42:44;100314.20;;;13.30
68911;BMP180;55953;51.650;-0.522;2023-05-09T04:45:12;100312.00;;;13.30
68911;BMP180;55953;51.650;-0.522;2023-05-09T04:47:41;100317.60;;;13.30
68911;BMP180;55953;51.650;-0.522;2023-05-09T04:50:09;100323.80;;;13.32
68911;BMP180;55953;51.650;-0.522;2023-05-09T04:52:37;100320.00;;;13.40
68911;BMP180;55953;51.650;-0.522;2023-05-09T04:55:06;100307.20;;;13.38
68911;BMP180;55953;51.650;-0.522;2023-05-09T04:57:37;100312.40;;;13.40
68911;BMP180;55953;51.650;-0.522;2023-05-09T05:00:06;100312.00;;;13.40
68911;BMP180;55953;51.650;-0.522;2023-05-09T05:02:36;100310.20;;;13.40
68911;BMP180;55953;51.650;-0.522;2023-05-09T05:05:05;100305.60;;;13.44
68911;BMP180;55953;51.650;-0.522;2023-05-09T05:07:48;100302.60;;;13.42
68911;BMP180;55953;51.650;-0.522;2023-05-09T05:10:19;100301.20;;;13.50
68911;BMP180;55953;51.650;-0.522;2023-05-09T05:12:51;100300.00;;;13.50
68911;BMP180;55953;51.650;-0.522;2023-05-09T05:15:19;100295.00;;;13.50
68911;BMP180;55953;51.650;-0.522;2023-05-09T05:17:47;100292.60;;;13.50
68911;BMP180;55953;51.650;-0.522;2023-05-09T05:20:17;100281.40;;;13.50
68911;BMP180;55953;51.650;-0.522;2023-05-09T05:22:45;100278.00;;;13.50
68911;BMP180;55953;51.650;-0.522;2023-05-09T05:25:13;100276.80;;;13.50
68911;BMP180;55953;51.650;-0.522;2023-05-09T05:27:42;100278.40;;;13.60
68911;BMP180;55953;51.650;-0.522;2023-05-09T05:30:13;100276.00;;;13.60
68911;BMP180;55953;51.650;-0.522;2023-05-09T05:32:43;100270.20;;;13.50
68911;BMP180;55953;51.650;-0.522;2023-05-09T05:35:11;100270.20;;;13.52
68911;BMP180;55953;51.650;-0.522;2023-05-09T05:37:41;100262.40;;;13.60
68911;BMP180;55953;51.650;-0.522;2023-05-09T05:40:10;100264.40;;;13.60
68911;BMP180;55953;51.650;-0.522;2023-05-09T05:42:39;100265.40;;;13.60
68911;BMP180;55953;51.650;-0.522;2023-05-09T05:45:08;100264.40;;;13.70
68911;BMP180;55953;51.650;-0.522;2023-05-09T05:47:38;100264.00;;;13.70
68911;BMP180;55953;51.650;-0.522;2023-05-09T05:50:07;100268.20;;;13.80
68911;BMP180;55953;51.650;-0.522;2023-05-09T05:52:39;100275.60;;;13.84
68911;BMP180;55953;51.650;-0.522;2023-05-09T05:55:09;100274.40;;;13.90
68911;BMP180;55953;51.650;-0.522;2023-05-09T05:57:37;100282.80;;;14.00
68911;BMP180;55953;51.650;-0.522;2023-05-09T06:00:08;100281.00;;;14.00
68911;BMP180;55953;51.650;-0.522;2023-05-09T06:02:43;100288.00;;;14.14
68911;BMP180;55953;51.650;-0.522;2023-05-09T06:05:16;100283.40;;;14.20
68911;BMP180;55953;51.650;-0.522;2023-05-09T06:07:44;100281.80;;;14.20
68911;BMP180;55953;51.650;-0.522;2023-05-09T06:10:12;100282.00;;;14.20
68911;BMP180;55953;51.650;-0.522;2023-05-09T06:12:43;100283.40;;;14.20
68911;BMP180;55953;51.650;-0.522;2023-05-09T06:15:12;100279.40;;;14.20
68911;BMP180;55953;51.650;-0.522;2023-05-09T06:17:43;100275.80;;;14.20
68911;BMP180;55953;51.650;-0.522;2023-05-09T06:20:11;100278.20;;;14.22
68911;BMP180;55953;51.650;-0.522;2023-05-09T06:22:39;100277.20;;;14.30
68911;BMP180;55953;51.650;-0.522;2023-05-09T06:25:07;100279.40;;;14.32
68911;BMP180;55953;51.650;-0.522;2023-05-09T06:27:37;100279.80;;;14.40
68911;BMP180;55953;51.650;-0.522;2023-05-09T06:30:06;100285.40;;;14.40
68911;BMP180;55953;51.650;-0.522;2023-05-09T06:32:53;100289.40;;;14.40
68911;BMP180;55953;51.650;-0.522;2023-05-09T06:35:21;100291.60;;;14.38
68911;BMP180;55953;51.650;-0.522;2023-05-09T06:37:49;100288.40;;;14.40
68911;BMP180;55953;51.650;-0.522;2023-05-09T06:40:17;100291.60;;;14.40
68911;BMP180;55953;51.650;-0.522;2023-05-09T06:42:45;100291.00;;;14.40
68911;BMP180;55953;51.650;-0.522;2023-05-09T06:45:14;100287.80;;;14.46
68911;BMP180;55953;51.650;-0.522;2023-05-09T06:47:42;100286.20;;;14.46
68911;BMP180;55953;51.650;-0.522;2023-05-09T06:50:10;100281.60;;;14.50
68911;BMP180;55953;51.650;-0.522;2023-05-09T06:52:38;100281.20;;;14.60
68911;BMP180;55953;51.650;-0.522;2023-05-09T06:55:07;100276.20;;;14.60
68911;BMP180;55953;51.650;-0.522;2023-05-09T06:57:37;100278.00;;;14.78
68911;BMP180;55953;51.650;-0.522;2023-05-09T07:00:07;100274.00;;;14.70
68911;BMP180;55953;51.650;-0.522;2023-05-09T07:02:36;100270.60;;;14.70
68911;BMP180;55953;51.650;-0.522;2023-05-09T07:05:10;100272.60;;;14.80
68911;BMP180;55953;51.650;-0.522;2023-05-09T07:07:38;100276.80;;;14.80
68911;BMP180;55953;51.650;-0.522;2023-05-09T07:10:07;100279.40;;;14.80
68911;BMP180;55953;51.650;-0.522;2023-05-09T07:12:39;100272.60;;;14.70
68911;BMP180;55953;51.650;-0.522;2023-05-09T07:15:08;100268.40;;;14.70
68911;BMP180;55953;51.650;-0.522;2023-05-09T07:17:36;100266.00;;;14.80
68911;BMP180;55953;51.650;-0.522;2023-05-09T07:20:07;100263.60;;;14.90
68911;BMP180;55953;51.650;-0.522;2023-05-09T07:22:37;100261.00;;;14.98
68911;BMP180;55953;51.650;-0.522;2023-05-09T07:25:08;100266.20;;;15.00
68911;BMP180;55953;51.650;-0.522;2023-05-09T07:27:36;100263.40;;;14.96
68911;BMP180;55953;51.650;-0.522;2023-05-09T07:30:06;100259.60;;;14.90
68911;BMP180;55953;51.650;-0.522;2023-05-09T07:32:35;100257.40;;;14.90
68911;BMP180;55953;51.650;-0.522;2023-05-09T07:35:08;100266.60;;;15.10
68911;BMP180;55953;51.650;-0.522;2023-05-09T07:37:35;100268.20;;;15.20
68911;BMP180;55953;51.650;-0.522;2023-05-09T07:40:04;100264.80;;;15.26
68911;BMP180;55953;51.650;-0.522;2023-05-09T07:42:32;100259.60;;;15.40
68911;BMP180;55953;51.650;-0.522;2023-05-09T07:45:00;100261.00;;;15.40
68911;BMP180;55953;51.650;-0.522;2023-05-09T07:47:33;100266.00;;;15.50
68911;BMP180;55953;51.650;-0.522;2023-05-09T07:50:01;100262.60;;;15.52
68911;BMP180;55953;51.650;-0.522;2023-05-09T07:52:29;100262.80;;;15.70
68911;BMP180;55953;51.650;-0.522;2023-05-09T07:54:57;100267.40;;;15.96
68911;BMP180;55953;51.650;-0.522;2023-05-09T07:57:25;100260.80;;;16.10
68911;BMP180;55953;51.650;-0.522;2023-05-09T07:59:53;100263.00;;;16.14
68911;BMP180;55953;51.650;-0.522;2023-05-09T08:02:21;100258.00;;;16.16
68911;BMP180;55953;51.650;-0.522;2023-05-09T08:04:48;100253.80;;;16.20
68911;BMP180;55953;51.650;-0.522;2023-05-09T08:07:16;100252.00;;;16.20
68911;BMP180;55953;51.650;-0.522;2023-05-09T08:09:44;100250.00;;;16.08
68911;BMP180;55953;51.650;-0.522;2023-05-09T08:12:12;100252.60;;;15.80
68911;BMP180;55953;51.650;-0.522;2023-05-09T08:14:40;100251.80;;;15.64
68911;BMP180;55953;51.650;-0.522;2023-05-09T08:17:08;100263.80;;;15.50
68911;BMP180;55953;51.650;-0.522;2023-05-09T08:19:36;100259.60;;;15.40
68911;BMP180;55953;51.650;-0.522;2023-05-09T08:22:03;100262.00;;;15.50
68911;BMP180;55953;51.650;-0.522;2023-05-09T08:24:32;100262.40;;;15.50
68911;BMP180;55953;51.650;-0.522;2023-05-09T08:26:59;100259.40;;;15.40
68911;BMP180;55953;51.650;-0.522;2023-05-09T08:29:27;100264.40;;;15.40
68911;BMP180;55953;51.650;-0.522;2023-05-09T08:31:56;100260.00;;;15.30
68911;BMP180;55953;51.650;-0.522;2023-05-09T08:34:24;100258.40;;;15.30
68911;BMP180;55953;51.650;-0.522;2023-05-09T08:36:53;100259.40;;;15.30
68911;BMP180;55953;51.650;-0.522;2023-05-09T08:39:21;100260.40;;;15.38
68911;BMP180;55953;51.650;-0.522;2023-05-09T08:41:49;100267.40;;;15.30
68911;BMP180;55953;51.650;-0.522;2023-05-09T08:44:18;100270.20;;;15.36
68911;BMP180;55953;51.650;-0.522;2023-05-09T08:46:51;100265.40;;;15.30
68911;BMP180;55953;51.650;-0.522;2023-05-09T08:49:20;100267.80;;;15.30
68911;BMP180;55953;51.650;-0.522;2023-05-09T08:51:48;100261.40;;;15.40
68911;BMP180;55953;51.650;-0.522;2023-05-09T08:54:17;100265.80;;;15.40
68911;BMP180;55953;51.650;-0.522;2023-05-09T08:56:50;100263.80;;;15.50
68911;BMP180;55953;51.650;-0.522;2023-05-09T08:59:18;100264.40;;;15.50
68911;BMP180;55953;51.650;-0.522;2023-05-09T09:01:46;100259.60;;;15.50
68911;BMP180;55953;51.650;-0.522;2023-05-09T09:04:14;100263.20;;;15.50
68911;BMP180;55953;51.650;-0.522;2023-05-09T09:06:43;100261.40;;;15.60
68911;BMP180;55953;51.650;-0.522;2023-05-09T09:09:12;100260.20;;;15.60
68911;BMP180;55953;51.650;-0.522;2023-05-09T09:11:41;100256.80;;;15.80
68911;BMP180;55953;51.650;-0.522;2023-05-09T09:14:15;100251.00;;;15.90
68911;BMP180;55953;51.650;-0.522;2023-05-09T09:16:48;100251.40;;;16.00
68911;BMP180;55953;51.650;-0.522;2023-05-09T09:19:18;100252.60;;;16.00
68911;BMP180;55953;51.650;-0.522;2023-05-09T09:21:47;100248.20;;;16.06
68911;BMP180;55953;51.650;-0.522;2023-05-09T09:24:21;100245.80;;;16.10
68911;BMP180;55953;51.650;-0.522;2023-05-09T09:26:50;100242.80;;;16.10
68911;BMP180;55953;51.650;-0.522;2023-05-09T09:29:19;100246.80;;;16.20
68911;BMP180;55953;51.650;-0.522;2023-05-09T09:31:52;100241.60;;;16.40
68911;BMP180;55953;51.650;-0.522;2023-05-09T09:34:22;100244.80;;;16.60
68911;BMP180;55953;51.650;-0.522;2023-05-09T09:36:50;100243.60;;;16.80
68911;BMP180;55953;51.650;-0.522;2023-05-09T09:39:18;100236.40;;;16.90
68911;BMP180;55953;51.650;-0.522;2023-05-09T09:41:47;100237.20;;;16.80
68911;BMP180;55953;51.650;-0.522;2023-05-09T09:44:20;100235.60;;;16.74
68911;BMP180;55953;51.650;-0.522;2023-05-09T09:46:54;100232.20;;;16.80
68911;BMP180;55953;51.650;-0.522;2023-05-09T09:49:24;100220.80;;;16.90
68911;BMP180;55953;51.650;-0.522;2023-05-09T09:51:57;100225.40;;;17.00
68911;BMP180;55953;51.650;-0.522;2023-05-09T09:54:26;100224.20;;;17.14
68911;BMP180;55953;51.650;-0.522;2023-05-09T09:56:54;100223.00;;;17.20
68911;BMP180;55953;51.650;-0.522;2023-05-09T09:59:25;100228.00;;;17.10
68911;BMP180;55953;51.650;-0.522;2023-05-09T10:02:02;100220.60;;;17.00
68911;BMP180;55953;51.650;-0.522;2023-05-09T10:04:38;100222.80;;;17.00
68911;BMP180;55953;51.650;-0.522;2023-05-09T10:07:09;100223.60;;;16.88
68911;BMP180;55953;51.650;-0.522;2023-05-09T10:09:41;100218.40;;;16.72
68911;BMP180;55953;51.650;-0.522;2023-05-09T10:12:10;100219.80;;;16.70
68911;BMP180;55953;51.650;-0.522;2023-05-09T10:14:41;100222.20;;;16.60
68911;BMP180;55953;51.650;-0.522;2023-05-09T10:17:13;100217.20;;;16.50
68911;BMP180;55953;51.650;-0.522;2023-05-09T10:19:46;100221.60;;;16.30
68911;BMP180;55953;51.650;-0.522;2023-05-09T10:22:17;100215.20;;;16.20
68911;BMP180;55953;51.650;-0.522;2023-05-09T10:25:02;100217.40;;;16.40
68911;BMP180;55953;51.650;-0.522;2023-05-09T10:27:34;100212.20;;;16.74
68911;BMP180;55953;51.650;-0.522;2023-05-09T10:30:21;100207.80;;;17.00
68911;BMP180;55953;51.650;-0.522;2023-05-09T10:33:03;100199.60;;;17.30
68911;BMP180;55953;51.650;-0.522;2023-05-09T10:35:45;100194.80;;;17.50
68911;BMP180;55953;51.650;-0.522;2023-05-09T10:38:13;100191.20;;;17.60
68911;BMP180;55953;51.650;-0.522;2023-05-09T10:40:45;100186.20;;;17.84
68911;BMP180;55953;51.650;-0.522;2023-05-09T10:43:14;100186.60;;;18.10
68911;BMP180;55953;51.650;-0.522;2023-05-09T10:45:42;100184.60;;;18.18
68911;BMP180;55953;51.650;-0.522;2023-05-09T10:48:12;100181.60;;;18.20
68911;BMP180;55953;51.650;-0.522;2023-05-09T10:50:40;100178.00;;;18.30
68911;BMP180;55953;51.650;-0.522;2023-05-09T10:53:09;100176.00;;;18.30
68911;BMP180;55953;51.650;-0.522;2023-05-09T10:55:54;100175.20;;;18.26
68911;BMP180;55953;51.650;-0.522;2023-05-09T10:58:31;100170.20;;;18.30
68911;BMP180;55953;51.650;-0.522;2023-05-09T11:01:02;100171.40;;;18.34
68911;BMP180;55953;51.650;-0.522;2023-05-09T11:03:54;100173.00;;;18.22
68911;BMP180;55953;51.650;-0.522;2023-05-09T11:09:33;100172.40;;;17.84
68911;BMP180;55953;51.650;-0.522;2023-05-09T11:14:36;100166.00;;;17.90
68911;BMP180;55953;51.650;-0.522;2023-05-09T11:17:06;100163.60;;;18.16
68911;BMP180;55953;51.650;-0.522;2023-05-09T11:24:51;100161.60;;;18.50
68911;BMP180;55953;51.650;-0.522;2023-05-09T11:27:25;100155.40;;;18.78
68911;BMP180;55953;51.650;-0.522;2023-05-09T11:29:56;100152.20;;;19.00
68911;BMP180;55953;51.650;-0.522;2023-05-09T11:32:30;100154.20;;;18.98
68911;BMP180;55953;51.650;-0.522;2023-05-09T11:37:49;100150.40;;;18.86
68911;BMP180;55953;51.650;-0.522;2023-05-09T11:40:20;100149.00;;;18.84
68911;BMP180;55953;51.650;-0.522;2023-05-09T11:42:50;100142.80;;;18.70
68911;BMP180;55953;51.650;-0.522;2023-05-09T11:45:30;100139.40;;;18.70
68911;BMP180;55953;51.650;-0.522;2023-05-09T11:47:59;100136.20;;;18.60
68911;BMP180;55953;51.650;-0.522;2023-05-09T11:50:30;100134.20;;;18.60
68911;BMP180;55953;51.650;-0.522;2023-05-09T11:52:58;100128.40;;;18.74
68911;BMP180;55953;51.650;-0.522;2023-05-09T11:55:26;100129.00;;;18.90
68911;BMP180;55953;51.650;-0.522;2023-05-09T11:57:57;100131.00;;;19.00
68911;BMP180;55953;51.650;-0.522;2023-05-09T12:00:25;100122.00;;;19.20
68911;BMP180;55953;51.650;-0.522;2023-05-09T12:02:53;100123.60;;;19.34
68911;BMP180;55953;51.650;-0.522;2023-05-09T12:05:22;100122.00;;;19.50
68911;BMP180;55953;51.650;-0.522;2023-05-09T12:07:50;100117.60;;;19.50
68911;BMP180;55953;51.650;-0.522;2023-05-09T12:10:21;100116.80;;;19.60
68911;BMP180;55953;51.650;-0.522;2023-05-09T12:12:52;100112.40;;;19.94
68911;BMP180;55953;51.650;-0.522;2023-05-09T12:15:22;100113.40;;;20.20
68911;BMP180;55953;51.650;-0.522;2023-05-09T12:18:04;100108.20;;;20.34
68911;BMP180;55953;51.650;-0.522;2023-05-09T12:20:48;100109.20;;;20.50
68911;BMP180;55953;51.650;-0.522;2023-05-09T12:23:18;100114.80;;;20.48
68911;BMP180;55953;51.650;-0.522;2023-05-09T12:25:54;100108.60;;;20.58
68911;BMP180;55953;51.650;-0.522;2023-05-09T12:28:25;100104.40;;;20.70
68911;BMP180;55953;51.650;-0.522;2023-05-09T12:30:53;100108.00;;;20.80
68911;BMP180;55953;51.650;-0.522;2023-05-09T12:33:22;100101.40;;;20.90
68911;BMP180;55953;51.650;-0.522;2023-05-09T12:36:23;100100.40;;;21.10
68911;BMP180;55953;51.650;-0.522;2023-05-09T12:38:53;100096.20;;;21.10
68911;BMP180;55953;51.650;-0.522;2023-05-09T12:41:21;100092.40;;;21.10
68911;BMP180;55953;51.650;-0.522;2023-05-09T12:44:06;100094.80;;;21.00
68911;BMP180;55953;51.650;-0.522;2023-05-09T12:46:34;100085.40;;;21.10
68911;BMP180;55953;51.650;-0.522;2023-05-09T12:49:03;100085.80;;;20.90
68911;BMP180;55953;51.650;-0.522;2023-05-09T12:51:32;100087.20;;;21.00
68911;BMP180;55953;51.650;-0.522;2023-05-09T12:54:02;100085.40;;;20.90
68911;BMP180;55953;51.650;-0.522;2023-05-09T12:56:33;100083.40;;;20.70
68911;BMP180;55953;51.650;-0.522;2023-05-09T12:59:01;100083.80;;;20.36
68911;BMP180;55953;51.650;-0.522;2023-05-09T13:01:29;100084.40;;;19.94
68911;BMP180;55953;51.650;-0.522;2023-05-09T13:04:04;100088.60;;;19.56
68911;BMP180;55953;51.650;-0.522;2023-05-09T13:06:33;100089.80;;;19.30
68911;BMP180;55953;51.650;-0.522;2023-05-09T13:09:03;100080.80;;;19.30
68911;BMP180;55953;51.650;-0.522;2023-05-09T13:11:33;100077.60;;;19.40
68911;BMP180;55953;51.650;-0.522;2023-05-09T13:14:01;100081.60;;;19.66
68911;BMP180;55953;51.650;-0.522;2023-05-09T13:16:30;100078.80;;;20.10
68911;BMP180;55953;51.650;-0.522;2023-05-09T13:18:58;100072.60;;;20.40
68911;BMP180;55953;51.650;-0.522;2023-05-09T13:21:28;100065.80;;;20.72
68911;BMP180;55953;51.650;-0.522;2023-05-09T13:23:56;100062.40;;;21.00
68911;BMP180;55953;51.650;-0.522;2023-05-09T13:26:24;100066.20;;;21.00
68911;BMP180;55953;51.650;-0.522;2023-05-09T13:28:54;100066.80;;;20.80
68911;BMP180;55953;51.650;-0.522;2023-05-09T13:31:23;100071.00;;;20.70
68911;BMP180;55953;51.650;-0.522;2023-05-09T13:33:51;100068.60;;;20.64
68911;BMP180;55953;51.650;-0.522;2023-05-09T13:36:19;100064.00;;;20.70
68911;BMP180;55953;51.650;-0.522;2023-05-09T13:38:47;100060.20;;;20.70
68911;BMP180;55953;51.650;-0.522;2023-05-09T13:41:15;100064.00;;;20.80
68911;BMP180;55953;51.650;-0.522;2023-05-09T13:43:47;100056.80;;;20.70
68911;BMP180;55953;51.650;-0.522;2023-05-09T13:46:15;100048.80;;;20.70
68911;BMP180;55953;51.650;-0.522;2023-05-09T13:48:43;100052.40;;;20.78
68911;BMP180;55953;51.650;-0.522;2023-05-09T13:51:11;100052.20;;;21.00
68911;BMP180;55953;51.650;-0.522;2023-05-09T13:53:39;100044.80;;;21.10
68911;BMP180;55953;51.650;-0.522;2023-05-09T13:56:07;100042.40;;;21.20
68911;BMP180;55953;51.650;-0.522;2023-05-09T13:58:36;100039.00;;;21.32
68911;BMP180;55953;51.650;-0.522;2023-05-09T14:01:04;100040.20;;;21.40
68911;BMP180;55953;51.650;-0.522;2023-05-09T14:03:32;100040.20;;;21.54
68911;BMP180;55953;51.650;-0.522;2023-05-09T14:06:00;100034.40;;;21.40
68911;BMP180;55953;51.650;-0.522;2023-05-09T14:08:27;100033.80;;;21.50
68911;BMP180;55953;51.650;-0.522;2023-05-09T14:10:56;100031.00;;;21.60
68911;BMP180;55953;51.650;-0.522;2023-05-09T14:13:23;100023.20;;;21.62
68911;BMP180;55953;51.650;-0.522;2023-05-09T14:15:51;100026.60;;;21.70
68911;BMP180;55953;51.650;-0.522;2023-05-09T14:18:19;100020.60;;;21.50
68911;BMP180;55953;51.650;-0.522;2023-05-09T14:20:48;100023.20;;;21.60